sensor_id;sensor_type;location;lat;lon;timestamp;P1;durP1;ratioP1;P2;durP2;ratioP2
70169;SDS011;57543;45.442;9.212;2023-04-15T00:02:14;3.25;;;1.63;;
70169;SDS011;57543;45.442;9.212;2023-04-15T00:05:21;4.18;;;1.95;;
70169;SDS011;57543;45.442;9.212;2023-04-15T00:08:25;4.97;;;2.00;;
70169;SDS011;57543;45.442;9.212;2023-04-15T00:11:29;4.90;;;2.13;;
70169;SDS011;57543;45.442;9.212;2023-04-15T00:14:33;6.10;;;2.50;;
70169;SDS011;57543;45.442;9.212;2023-04-15T00:17:40;5.70;;;2.20;;
70169;SDS011;57543;45.442;9.212;2023-04-15T00:20:44;6.30;;;2.30;;
70169;SDS011;57543;45.442;9.212;2023-04-15T00:23:47;5.20;;;2.10;;
70169;SDS011;57543;45.442;9.212;2023-04-15T00:26:54;6.50;;;2.03;;
70169;SDS011;57543;45.442;9.212;2023-04-15T00:29:58;4.57;;;1.90;;
70169;SDS011;57543;45.442;9.212;2023-04-15T00:33:01;5.53;;;1.92;;
70169;SDS011;57543;45.442;9.212;2023-04-15T00:36:06;4.47;;;2.20;;
70169;SDS011;57543;45.442;9.212;2023-04-15T00:39:11;5.20;;;2.35;;
70169;SDS011;57543;45.442;9.212;2023-04-15T00:42:14;4.95;;;2.13;;
70169;SDS011;57543;45.442;9.212;2023-04-15T00:45:19;5.27;;;2.00;;
70169;SDS011;57543;45.442;9.212;2023-04-15T00:48:24;4.43;;;2.15;;
70169;SDS011;57543;45.442;9.212;2023-04-15T00:51:29;4.93;;;2.20;;
70169;SDS011;57543;45.442;9.212;2023-04-15T00:54:35;4.35;;;2.20;;
70169;SDS011;57543;45.442;9.212;2023-04-15T00:57:40;4.22;;;2.47;;
70169;SDS011;57543;45.442;9.212;2023-04-15T01:00:44;4.73;;;2.17;;
70169;SDS011;57543;45.442;9.212;2023-04-15T01:03:48;6.13;;;2.60;;
70169;SDS011;57543;45.442;9.212;2023-04-15T01:06:53;5.07;;;2.22;;
70169;SDS011;57543;45.442;9.212;2023-04-15T01:09:56;4.65;;;2.53;;
70169;SDS011;57543;45.442;9.212;2023-04-15T01:13:01;5.15;;;2.70;;
70169;SDS011;57543;45.442;9.212;2023-04-15T01:16:05;6.13;;;2.97;;
70169;SDS011;57543;45.442;9.212;2023-04-15T01:19:11;6.20;;;3.58;;
70169;SDS011;57543;45.442;9.212;2023-04-15T01:22:18;6.72;;;3.17;;
70169;SDS011;57543;45.442;9.212;2023-04-15T01:25:27;5.68;;;3.50;;
70169;SDS011;57543;45.442;9.212;2023-04-15T01:28:35;7.78;;;3.63;;
70169;SDS011;57543;45.442;9.212;2023-04-15T01:31:48;7.43;;;4.23;;
70169;SDS011;57543;45.442;9.212;2023-04-15T01:35:12;7.32;;;4.78;;
70169;SDS011;57543;45.442;9.212;2023-04-15T01:38:25;6.55;;;4.43;;
70169;SDS011;57543;45.442;9.212;2023-04-15T01:41:30;7.45;;;4.03;;
70169;SDS011;57543;45.442;9.212;2023-04-15T01:44:34;8.60;;;4.00;;
70169;SDS011;57543;45.442;9.212;2023-04-15T01:47:39;8.97;;;4.27;;
70169;SDS011;57543;45.442;9.212;2023-04-15T01:50:44;8.18;;;4.68;;
70169;SDS011;57543;45.442;9.212;2023-04-15T01:53:49;7.75;;;4.35;;
70169;SDS011;57543;45.442;9.212;2023-04-15T01:56:56;8.32;;;4.70;;
70169;SDS011;57543;45.442;9.212;2023-04-15T02:00:01;7.88;;;4.40;;
70169;SDS011;57543;45.442;9.212;2023-04-15T02:03:18;7.43;;;4.73;;
70169;SDS011;57543;45.442;9.212;2023-04-15T02:06:22;7.22;;;4.75;;
70169;SDS011;57543;45.442;9.212;2023-04-15T02:09:28;7.75;;;4.82;;
70169;SDS011;57543;45.442;9.212;2023-04-15T02:12:32;9.10;;;4.50;;
70169;SDS011;57543;45.442;9.212;2023-04-15T02:15:38;9.13;;;4.65;;
70169;SDS011;57543;45.442;9.212;2023-04-15T02:18:46;7.50;;;4.80;;
70169;SDS011;57543;45.442;9.212;2023-04-15T02:21:51;8.75;;;5.20;;
70169;SDS011;57543;45.442;9.212;2023-04-15T02:24:56;11.63;;;5.05;;
70169;SDS011;57543;45.442;9.212;2023-04-15T02:28:01;8.45;;;5.15;;
70169;SDS011;57543;45.442;9.212;2023-04-15T02:31:06;8.32;;;5.03;;
70169;SDS011;57543;45.442;9.212;2023-04-15T02:34:12;8.47;;;4.67;;
70169;SDS011;57543;45.442;9.212;2023-04-15T02:37:22;7.45;;;4.70;;
70169;SDS011;57543;45.442;9.212;2023-04-15T02:40:28;9.65;;;5.72;;
70169;SDS011;57543;45.442;9.212;2023-04-15T02:43:33;8.13;;;5.43;;
70169;SDS011;57543;45.442;9.212;2023-04-15T02:46:37;8.68;;;5.68;;
70169;SDS011;57543;45.442;9.212;2023-04-15T02:49:43;9.27;;;5.57;;
70169;SDS011;57543;45.442;9.212;2023-04-15T02:52:48;7.72;;;5.10;;
70169;SDS011;57543;45.442;9.212;2023-04-15T02:55:53;8.40;;;5.57;;
70169;SDS011;57543;45.442;9.212;2023-04-15T02:58:58;8.65;;;5.40;;
70169;SDS011;57543;45.442;9.212;2023-04-15T03:02:03;7.78;;;4.90;;
70169;SDS011;57543;45.442;9.212;2023-04-15T03:05:11;8.77;;;5.10;;
70169;SDS011;57543;45.442;9.212;2023-04-15T03:08:22;7.93;;;5.43;;
70169;SDS011;57543;45.442;9.212;2023-04-15T03:11:31;10.18;;;5.68;;
70169;SDS011;57543;45.442;9.212;2023-04-15T03:14:36;9.40;;;5.93;;
70169;SDS011;57543;45.442;9.212;2023-04-15T03:17:41;9.10;;;4.97;;
70169;SDS011;57543;45.442;9.212;2023-04-15T03:20:47;8.83;;;5.37;;
70169;SDS011;57543;45.442;9.212;2023-04-15T03:23:51;8.43;;;5.18;;
70169;SDS011;57543;45.442;9.212;2023-04-15T03:26:56;10.10;;;5.28;;
70169;SDS011;57543;45.442;9.212;2023-04-15T03:30:02;9.98;;;5.60;;
70169;SDS011;57543;45.442;9.212;2023-04-15T03:33:11;10.95;;;5.80;;
70169;SDS011;57543;45.442;9.212;2023-04-15T03:36:18;8.27;;;5.63;;
70169;SDS011;57543;45.442;9.212;2023-04-15T03:39:23;10.23;;;5.75;;
70169;SDS011;57543;45.442;9.212;2023-04-15T03:42:28;8.95;;;5.20;;
70169;SDS011;57543;45.442;9.212;2023-04-15T03:45:34;9.10;;;5.70;;
70169;SDS011;57543;45.442;9.212;2023-04-15T03:48:39;9.10;;;5.55;;
70169;SDS011;57543;45.442;9.212;2023-04-15T03:51:44;11.03;;;6.33;;
70169;SDS011;57543;45.442;9.212;2023-04-15T03:54:49;9.93;;;6.40;;
70169;SDS011;57543;45.442;9.212;2023-04-15T03:57:54;11.70;;;6.15;;
70169;SDS011;57543;45.442;9.212;2023-04-15T04:00:59;10.25;;;5.80;;
70169;SDS011;57543;45.442;9.212;2023-04-15T04:04:04;10.30;;;6.60;;
70169;SDS011;57543;45.442;9.212;2023-04-15T04:07:14;10.80;;;6.37;;
70169;SDS011;57543;45.442;9.212;2023-04-15T04:10:20;9.90;;;6.28;;
70169;SDS011;57543;45.442;9.212;2023-04-15T04:13:25;10.23;;;6.65;;
70169;SDS011;57543;45.442;9.212;2023-04-15T04:16:29;10.90;;;6.70;;
70169;SDS011;57543;45.442;9.212;2023-04-15T04:19:34;11.27;;;6.55;;
70169;SDS011;57543;45.442;9.212;2023-04-15T04:22:39;10.00;;;6.80;;
70169;SDS011;57543;45.442;9.212;2023-04-15T04:25:45;10.82;;;6.50;;
70169;SDS011;57543;45.442;9.212;2023-04-15T04:28:49;10.98;;;6.85;;
70169;SDS011;57543;45.442;9.212;2023-04-15T04:31:54;11.52;;;6.30;;
70169;SDS011;57543;45.442;9.212;2023-04-15T04:34:59;11.80;;;5.78;;
70169;SDS011;57543;45.442;9.212;2023-04-15T04:38:04;9.30;;;5.57;;
70169;SDS011;57543;45.442;9.212;2023-04-15T04:41:09;11.57;;;6.40;;
70169;SDS011;57543;45.442;9.212;2023-04-15T04:44:14;10.05;;;5.90;;
70169;SDS011;57543;45.442;9.212;2023-04-15T04:47:19;9.98;;;5.65;;
70169;SDS011;57543;45.442;9.212;2023-04-15T04:50:24;9.18;;;5.47;;
70169;SDS011;57543;45.442;9.212;2023-04-15T04:53:29;9.50;;;4.80;;
70169;SDS011;57543;45.442;9.212;2023-04-15T04:56:34;8.98;;;4.80;;
70169;SDS011;57543;45.442;9.212;2023-04-15T04:59:39;8.38;;;4.75;;
70169;SDS011;57543;45.442;9.212;2023-04-15T05:02:44;9.25;;;5.00;;
70169;SDS011;57543;45.442;9.212;2023-04-15T05:05:49;8.95;;;4.55;;
70169;SDS011;57543;45.442;9.212;2023-04-15T05:08:55;11.27;;;4.93;;
70169;SDS011;57543;45.442;9.212;2023-04-15T05:11:59;7.82;;;4.47;;
70169;SDS011;57543;45.442;9.212;2023-04-15T05:15:05;7.63;;;3.90;;
70169;SDS011;57543;45.442;9.212;2023-04-15T05:18:10;7.60;;;4.30;;
70169;SDS011;57543;45.442;9.212;2023-04-15T05:21:15;8.20;;;4.45;;
70169;SDS011;57543;45.442;9.212;2023-04-15T05:24:20;9.90;;;5.40;;
70169;SDS011;57543;45.442;9.212;2023-04-15T05:27:25;8.65;;;4.32;;
70169;SDS011;57543;45.442;9.212;2023-04-15T05:30:30;8.45;;;4.18;;
70169;SDS011;57543;45.442;9.212;2023-04-15T05:33:38;8.15;;;4.25;;
70169;SDS011;57543;45.442;9.212;2023-04-15T05:36:43;7.63;;;4.35;;
70169;SDS011;57543;45.442;9.212;2023-04-15T05:39:48;9.43;;;4.40;;
70169;SDS011;57543;45.442;9.212;2023-04-15T05:42:53;8.30;;;4.55;;
70169;SDS011;57543;45.442;9.212;2023-04-15T05:45:59;10.60;;;4.43;;
70169;SDS011;57543;45.442;9.212;2023-04-15T05:49:04;8.40;;;4.72;;
70169;SDS011;57543;45.442;9.212;2023-04-15T05:52:08;9.13;;;4.93;;
70169;SDS011;57543;45.442;9.212;2023-04-15T05:55:13;9.13;;;4.60;;
70169;SDS011;57543;45.442;9.212;2023-04-15T05:58:18;9.15;;;4.68;;
70169;SDS011;57543;45.442;9.212;2023-04-15T06:01:23;8.77;;;4.75;;
70169;SDS011;57543;45.442;9.212;2023-04-15T06:04:29;8.25;;;4.85;;
70169;SDS011;57543;45.442;9.212;2023-04-15T06:07:37;9.88;;;5.40;;
70169;SDS011;57543;45.442;9.212;2023-04-15T06:10:42;9.93;;;5.63;;
70169;SDS011;57543;45.442;9.212;2023-04-15T06:13:48;10.57;;;5.60;;
70169;SDS011;57543;45.442;9.212;2023-04-15T06:16:52;10.43;;;5.18;;
70169;SDS011;57543;45.442;9.212;2023-04-15T06:19:58;11.00;;;5.05;;
70169;SDS011;57543;45.442;9.212;2023-04-15T06:23:03;10.15;;;4.70;;
70169;SDS011;57543;45.442;9.212;2023-04-15T06:26:08;10.93;;;5.10;;
70169;SDS011;57543;45.442;9.212;2023-04-15T06:29:13;8.75;;;4.70;;
70169;SDS011;57543;45.442;9.212;2023-04-15T06:32:18;8.18;;;4.53;;
70169;SDS011;57543;45.442;9.212;2023-04-15T06:35:22;7.50;;;4.30;;
70169;SDS011;57543;45.442;9.212;2023-04-15T06:38:27;9.30;;;4.80;;
70169;SDS011;57543;45.442;9.212;2023-04-15T06:41:45;12.47;;;5.30;;
70169;SDS011;57543;45.442;9.212;2023-04-15T06:44:50;8.10;;;4.43;;
70169;SDS011;57543;45.442;9.212;2023-04-15T06:47:55;7.07;;;4.28;;
70169;SDS011;57543;45.442;9.212;2023-04-15T06:51:01;8.98;;;5.13;;
70169;SDS011;57543;45.442;9.212;2023-04-15T06:54:07;9.02;;;5.57;;
70169;SDS011;57543;45.442;9.212;2023-04-15T06:57:12;8.67;;;5.20;;
70169;SDS011;57543;45.442;9.212;2023-04-15T07:00:17;10.80;;;5.47;;
70169;SDS011;57543;45.442;9.212;2023-04-15T07:03:22;9.32;;;4.70;;
70169;SDS011;57543;45.442;9.212;2023-04-15T07:06:27;9.18;;;4.93;;
70169;SDS011;57543;45.442;9.212;2023-04-15T07:09:32;8.90;;;4.90;;
70169;SDS011;57543;45.442;9.212;2023-04-15T07:12:37;10.47;;;5.27;;
70169;SDS011;57543;45.442;9.212;2023-04-15T07:15:42;9.25;;;5.22;;
70169;SDS011;57543;45.442;9.212;2023-04-15T07:18:48;8.32;;;5.50;;
70169;SDS011;57543;45.442;9.212;2023-04-15T07:21:53;10.50;;;5.47;;
70169;SDS011;57543;45.442;9.212;2023-04-15T07:24:58;11.02;;;5.20;;
70169;SDS011;57543;45.442;9.212;2023-04-15T07:28:03;10.93;;;5.57;;
70169;SDS011;57543;45.442;9.212;2023-04-15T07:31:10;9.70;;;5.55;;
70169;SDS011;57543;45.442;9.212;2023-04-15T07:34:16;10.10;;;5.70;;
70169;SDS011;57543;45.442;9.212;2023-04-15T07:37:22;9.48;;;5.72;;
70169;SDS011;57543;45.442;9.212;2023-04-15T07:40:27;9.48;;;5.60;;
70169;SDS011;57543;45.442;9.212;2023-04-15T07:43:32;8.67;;;5.27;;
70169;SDS011;57543;45.442;9.212;2023-04-15T07:46:37;8.48;;;5.80;;
70169;SDS011;57543;45.442;9.212;2023-04-15T07:49:42;11.15;;;6.13;;
70169;SDS011;57543;45.442;9.212;2023-04-15T07:52:48;9.93;;;5.40;;
70169;SDS011;57543;45.442;9.212;2023-04-15T07:55:53;8.10;;;5.55;;
70169;SDS011;57543;45.442;9.212;2023-04-15T07:58:59;12.10;;;5.60;;
70169;SDS011;57543;45.442;9.212;2023-04-15T08:02:05;9.85;;;5.93;;
70169;SDS011;57543;45.442;9.212;2023-04-15T08:05:12;8.50;;;5.70;;
70169;SDS011;57543;45.442;9.212;2023-04-15T08:08:18;10.15;;;5.30;;
70169;SDS011;57543;45.442;9.212;2023-04-15T08:11:23;9.23;;;5.70;;
70169;SDS011;57543;45.442;9.212;2023-04-15T08:14:28;9.27;;;5.57;;
70169;SDS011;57543;45.442;9.212;2023-04-15T08:17:33;10.27;;;5.22;;
70169;SDS011;57543;45.442;9.212;2023-04-15T08:20:38;7.40;;;5.05;;
70169;SDS011;57543;45.442;9.212;2023-04-15T08:23:44;8.93;;;5.05;;
70169;SDS011;57543;45.442;9.212;2023-04-15T08:26:51;7.60;;;5.80;;
70169;SDS011;57543;45.442;9.212;2023-04-15T08:29:56;8.53;;;5.33;;
70169;SDS011;57543;45.442;9.212;2023-04-15T08:33:01;7.70;;;5.20;;
70169;SDS011;57543;45.442;9.212;2023-04-15T08:36:06;9.13;;;5.40;;
70169;SDS011;57543;45.442;9.212;2023-04-15T08:39:11;9.05;;;5.05;;
70169;SDS011;57543;45.442;9.212;2023-04-15T08:42:16;8.68;;;5.28;;
70169;SDS011;57543;45.442;9.212;2023-04-15T08:45:26;8.33;;;5.17;;
70169;SDS011;57543;45.442;9.212;2023-04-15T08:48:32;8.65;;;5.50;;
70169;SDS011;57543;45.442;9.212;2023-04-15T08:51:39;7.75;;;4.78;;
70169;SDS011;57543;45.442;9.212;2023-04-15T08:54:45;10.25;;;5.55;;
70169;SDS011;57543;45.442;9.212;2023-04-15T08:57:51;10.43;;;5.10;;
70169;SDS011;57543;45.442;9.212;2023-04-15T09:00:56;8.70;;;5.30;;
70169;SDS011;57543;45.442;9.212;2023-04-15T09:04:06;9.35;;;5.13;;
70169;SDS011;57543;45.442;9.212;2023-04-15T09:07:11;9.80;;;5.30;;
70169;SDS011;57543;45.442;9.212;2023-04-15T09:10:16;7.05;;;4.30;;
70169;SDS011;57543;45.442;9.212;2023-04-15T09:13:21;8.63;;;4.80;;
70169;SDS011;57543;45.442;9.212;2023-04-15T09:16:26;9.37;;;4.70;;
70169;SDS011;57543;45.442;9.212;2023-04-15T09:19:32;8.60;;;5.40;;
70169;SDS011;57543;45.442;9.212;2023-04-15T09:22:40;9.20;;;5.55;;
70169;SDS011;57543;45.442;9.212;2023-04-15T09:25:49;7.63;;;4.90;;
70169;SDS011;57543;45.442;9.212;2023-04-15T09:28:54;8.05;;;5.10;;
70169;SDS011;57543;45.442;9.212;2023-04-15T09:32:11;8.90;;;4.67;;
70169;SDS011;57543;45.442;9.212;2023-04-15T09:35:17;9.60;;;4.70;;
70169;SDS011;57543;45.442;9.212;2023-04-15T09:38:22;9.48;;;4.88;;
70169;SDS011;57543;45.442;9.212;2023-04-15T09:41:27;7.65;;;4.65;;
70169;SDS011;57543;45.442;9.212;2023-04-15T09:44:33;7.57;;;4.13;;
70169;SDS011;57543;45.442;9.212;2023-04-15T09:47:37;8.00;;;4.30;;
70169;SDS011;57543;45.442;9.212;2023-04-15T09:50:43;6.95;;;4.07;;
70169;SDS011;57543;45.442;9.212;2023-04-15T09:53:49;6.72;;;3.67;;
70169;SDS011;57543;45.442;9.212;2023-04-15T09:57:03;8.10;;;3.95;;
70169;SDS011;57543;45.442;9.212;2023-04-15T10:00:11;9.63;;;4.50;;
70169;SDS011;57543;45.442;9.212;2023-04-15T10:03:19;9.63;;;4.50;;
70169;SDS011;57543;45.442;9.212;2023-04-15T10:06:28;7.32;;;3.83;;
70169;SDS011;57543;45.442;9.212;2023-04-15T10:09:37;7.95;;;4.03;;
70169;SDS011;57543;45.442;9.212;2023-04-15T10:12:43;8.00;;;3.92;;
70169;SDS011;57543;45.442;9.212;2023-04-15T10:15:59;8.73;;;4.00;;
70169;SDS011;57543;45.442;9.212;2023-04-15T10:19:04;10.17;;;3.87;;
70169;SDS011;57543;45.442;9.212;2023-04-15T10:22:13;11.18;;;4.05;;
70169;SDS011;57543;45.442;9.212;2023-04-15T10:25:18;7.97;;;3.90;;
70169;SDS011;57543;45.442;9.212;2023-04-15T10:28:24;9.48;;;4.43;;
70169;SDS011;57543;45.442;9.212;2023-04-15T10:31:30;7.30;;;3.50;;
70169;SDS011;57543;45.442;9.212;2023-04-15T10:34:35;8.70;;;3.77;;
70169;SDS011;57543;45.442;9.212;2023-04-15T10:37:41;6.03;;;3.38;;
70169;SDS011;57543;45.442;9.212;2023-04-15T10:40:46;6.75;;;3.40;;
70169;SDS011;57543;45.442;9.212;2023-04-15T10:43:53;6.18;;;3.72;;
70169;SDS011;57543;45.442;9.212;2023-04-15T10:46:59;6.30;;;3.65;;
70169;SDS011;57543;45.442;9.212;2023-04-15T10:50:04;7.47;;;3.00;;
70169;SDS011;57543;45.442;9.212;2023-04-15T10:53:09;7.13;;;3.50;;
70169;SDS011;57543;45.442;9.212;2023-04-15T10:56:15;6.35;;;3.35;;
70169;SDS011;57543;45.442;9.212;2023-04-15T10:59:20;7.97;;;3.53;;
70169;SDS011;57543;45.442;9.212;2023-04-15T11:05:51;7.80;;;3.97;;
70169;SDS011;57543;45.442;9.212;2023-04-15T11:08:56;7.03;;;3.58;;
70169;SDS011;57543;45.442;9.212;2023-04-15T11:18:37;6.90;;;3.28;;
70169;SDS011;57543;45.442;9.212;2023-04-15T11:21:42;7.97;;;3.03;;
70169;SDS011;57543;45.442;9.212;2023-04-15T11:24:47;8.15;;;3.20;;
70169;SDS011;57543;45.442;9.212;2023-04-15T11:27:55;7.38;;;3.30;;
70169;SDS011;57543;45.442;9.212;2023-04-15T11:31:07;8.15;;;3.45;;
70169;SDS011;57543;45.442;9.212;2023-04-15T11:34:23;6.38;;;3.25;;
70169;SDS011;57543;45.442;9.212;2023-04-15T11:37:28;7.43;;;3.07;;
70169;SDS011;57543;45.442;9.212;2023-04-15T11:40:33;5.97;;;2.95;;
70169;SDS011;57543;45.442;9.212;2023-04-15T11:43:39;6.10;;;3.35;;
70169;SDS011;57543;45.442;9.212;2023-04-15T11:46:45;8.32;;;3.20;;
70169;SDS011;57543;45.442;9.212;2023-04-15T11:49:50;6.28;;;3.20;;
70169;SDS011;57543;45.442;9.212;2023-04-15T11:52:55;8.00;;;3.37;;
70169;SDS011;57543;45.442;9.212;2023-04-15T11:56:00;8.65;;;2.90;;
70169;SDS011;57543;45.442;9.212;2023-04-15T11:59:03;9.23;;;3.53;;
70169;SDS011;57543;45.442;9.212;2023-04-15T12:02:11;6.97;;;3.08;;
70169;SDS011;57543;45.442;9.212;2023-04-15T12:05:15;7.78;;;2.75;;
70169;SDS011;57543;45.442;9.212;2023-04-15T12:08:18;6.30;;;2.93;;
70169;SDS011;57543;45.442;9.212;2023-04-15T12:14:30;7.50;;;3.03;;
70169;SDS011;57543;45.442;9.212;2023-04-15T12:17:34;6.35;;;2.80;;
70169;SDS011;57543;45.442;9.212;2023-04-15T12:20:44;8.43;;;3.10;;
70169;SDS011;57543;45.442;9.212;2023-04-15T12:23:51;5.77;;;2.67;;
70169;SDS011;57543;45.442;9.212;2023-04-15T12:26:56;6.80;;;2.67;;
70169;SDS011;57543;45.442;9.212;2023-04-15T12:30:03;6.78;;;3.00;;
70169;SDS011;57543;45.442;9.212;2023-04-15T12:33:08;7.53;;;2.60;;
70169;SDS011;57543;45.442;9.212;2023-04-15T12:36:12;6.93;;;3.00;;
70169;SDS011;57543;45.442;9.212;2023-04-15T12:39:15;5.73;;;2.67;;
70169;SDS011;57543;45.442;9.212;2023-04-15T12:42:19;5.35;;;2.35;;
70169;SDS011;57543;45.442;9.212;2023-04-15T12:48:54;5.55;;;2.45;;
70169;SDS011;57543;45.442;9.212;2023-04-15T12:51:58;6.53;;;2.13;;
70169;SDS011;57543;45.442;9.212;2023-04-15T12:55:03;11.07;;;3.07;;
70169;SDS011;57543;45.442;9.212;2023-04-15T12:58:07;8.35;;;2.33;;
70169;SDS011;57543;45.442;9.212;2023-04-15T13:01:10;7.78;;;3.03;;
70169;SDS011;57543;45.442;9.212;2023-04-15T13:04:14;6.32;;;2.55;;
70169;SDS011;57543;45.442;9.212;2023-04-15T13:07:18;6.78;;;2.50;;
70169;SDS011;57543;45.442;9.212;2023-04-15T13:10:21;7.30;;;2.30;;
70169;SDS011;57543;45.442;9.212;2023-04-15T13:13:25;4.25;;;2.08;;
70169;SDS011;57543;45.442;9.212;2023-04-15T13:16:29;7.03;;;2.38;;
70169;SDS011;57543;45.442;9.212;2023-04-15T13:19:34;5.00;;;2.38;;
70169;SDS011;57543;45.442;9.212;2023-04-15T13:22:39;6.07;;;2.20;;
70169;SDS011;57543;45.442;9.212;2023-04-15T13:25:43;4.73;;;2.03;;
70169;SDS011;57543;45.442;9.212;2023-04-15T13:28:47;4.80;;;2.10;;
70169;SDS011;57543;45.442;9.212;2023-04-15T13:31:50;6.05;;;2.33;;
70169;SDS011;57543;45.442;9.212;2023-04-15T13:34:54;6.13;;;2.67;;
70169;SDS011;57543;45.442;9.212;2023-04-15T13:37:58;6.05;;;2.60;;
70169;SDS011;57543;45.442;9.212;2023-04-15T13:41:01;6.17;;;2.67;;
70169;SDS011;57543;45.442;9.212;2023-04-15T13:44:06;5.88;;;2.60;;
70169;SDS011;57543;45.442;9.212;2023-04-15T13:47:09;7.03;;;2.92;;
70169;SDS011;57543;45.442;9.212;2023-04-15T13:50:13;5.65;;;2.63;;
70169;SDS011;57543;45.442;9.212;2023-04-15T13:53:17;8.27;;;3.45;;
70169;SDS011;57543;45.442;9.212;2023-04-15T13:56:21;7.67;;;3.27;;
70169;SDS011;57543;45.442;9.212;2023-04-15T13:59:24;9.80;;;3.50;;
70169;SDS011;57543;45.442;9.212;2023-04-15T14:02:28;9.55;;;3.53;;
70169;SDS011;57543;45.442;9.212;2023-04-15T14:05:31;5.75;;;2.95;;
70169;SDS011;57543;45.442;9.212;2023-04-15T14:08:35;8.05;;;3.15;;
70169;SDS011;57543;45.442;9.212;2023-04-15T14:11:38;8.50;;;2.90;;
70169;SDS011;57543;45.442;9.212;2023-04-15T14:14:43;6.15;;;3.08;;
70169;SDS011;57543;45.442;9.212;2023-04-15T14:17:46;6.78;;;3.08;;
70169;SDS011;57543;45.442;9.212;2023-04-15T14:20:50;5.78;;;2.92;;
70169;SDS011;57543;45.442;9.212;2023-04-15T14:23:54;6.15;;;2.80;;
70169;SDS011;57543;45.442;9.212;2023-04-15T14:26:58;6.53;;;2.53;;
70169;SDS011;57543;45.442;9.212;2023-04-15T14:30:02;9.63;;;3.72;;
70169;SDS011;57543;45.442;9.212;2023-04-15T14:33:06;6.57;;;3.42;;
70169;SDS011;57543;45.442;9.212;2023-04-15T14:36:10;7.13;;;3.45;;
70169;SDS011;57543;45.442;9.212;2023-04-15T14:39:14;7.18;;;3.33;;
70169;SDS011;57543;45.442;9.212;2023-04-15T14:42:18;6.83;;;3.33;;
70169;SDS011;57543;45.442;9.212;2023-04-15T14:45:22;6.95;;;3.65;;
70169;SDS011;57543;45.442;9.212;2023-04-15T14:48:26;5.45;;;2.92;;
70169;SDS011;57543;45.442;9.212;2023-04-15T14:51:30;6.13;;;3.10;;
70169;SDS011;57543;45.442;9.212;2023-04-15T14:54:34;6.65;;;3.42;;
70169;SDS011;57543;45.442;9.212;2023-04-15T14:57:38;8.23;;;3.90;;
70169;SDS011;57543;45.442;9.212;2023-04-15T15:00:42;8.15;;;3.55;;
70169;SDS011;57543;45.442;9.212;2023-04-15T15:03:47;7.53;;;3.95;;
70169;SDS011;57543;45.442;9.212;2023-04-15T15:06:51;7.70;;;3.70;;
70169;SDS011;57543;45.442;9.212;2023-04-15T15:09:55;7.20;;;3.90;;
70169;SDS011;57543;45.442;9.212;2023-04-15T15:12:59;10.20;;;3.57;;
70169;SDS011;57543;45.442;9.212;2023-04-15T15:16:03;10.48;;;3.50;;
70169;SDS011;57543;45.442;9.212;2023-04-15T15:19:07;8.52;;;4.50;;
70169;SDS011;57543;45.442;9.212;2023-04-15T15:22:10;7.18;;;3.80;;
70169;SDS011;57543;45.442;9.212;2023-04-15T15:25:14;6.03;;;3.30;;
70169;SDS011;57543;45.442;9.212;2023-04-15T15:28:18;7.73;;;3.70;;
70169;SDS011;57543;45.442;9.212;2023-04-15T15:31:24;8.65;;;4.10;;
70169;SDS011;57543;45.442;9.212;2023-04-15T15:34:28;10.18;;;4.65;;
70169;SDS011;57543;45.442;9.212;2023-04-15T15:37:31;7.72;;;4.07;;
70169;SDS011;57543;45.442;9.212;2023-04-15T15:40:34;8.55;;;4.43;;
70169;SDS011;57543;45.442;9.212;2023-04-15T15:43:38;7.97;;;3.50;;
70169;SDS011;57543;45.442;9.212;2023-04-15T15:46:42;9.38;;;3.70;;
70169;SDS011;57543;45.442;9.212;2023-04-15T15:49:46;8.85;;;3.97;;
70169;SDS011;57543;45.442;9.212;2023-04-15T15:52:49;11.77;;;5.75;;
70169;SDS011;57543;45.442;9.212;2023-04-15T15:55:53;10.60;;;5.22;;
70169;SDS011;57543;45.442;9.212;2023-04-15T15:58:56;11.90;;;4.90;;
70169;SDS011;57543;45.442;9.212;2023-04-15T16:02:01;8.65;;;4.18;;
70169;SDS011;57543;45.442;9.212;2023-04-15T16:05:05;9.60;;;4.80;;
70169;SDS011;57543;45.442;9.212;2023-04-15T16:08:09;9.30;;;5.13;;
70169;SDS011;57543;45.442;9.212;2023-04-15T16:11:13;8.73;;;4.65;;
70169;SDS011;57543;45.442;9.212;2023-04-15T16:14:17;7.70;;;4.20;;
70169;SDS011;57543;45.442;9.212;2023-04-15T16:17:20;7.50;;;3.75;;
70169;SDS011;57543;45.442;9.212;2023-04-15T16:20:24;7.50;;;4.03;;
70169;SDS011;57543;45.442;9.212;2023-04-15T16:23:28;8.38;;;4.63;;
70169;SDS011;57543;45.442;9.212;2023-04-15T16:26:32;7.63;;;4.18;;
70169;SDS011;57543;45.442;9.212;2023-04-15T16:29:35;9.50;;;4.37;;
70169;SDS011;57543;45.442;9.212;2023-04-15T16:32:39;9.13;;;4.20;;
70169;SDS011;57543;45.442;9.212;2023-04-15T16:35:42;10.82;;;5.43;;
70169;SDS011;57543;45.442;9.212;2023-04-15T16:38:46;8.07;;;4.68;;
70169;SDS011;57543;45.442;9.212;2023-04-15T16:41:50;9.63;;;4.80;;
70169;SDS011;57543;45.442;9.212;2023-04-15T16:44:54;9.93;;;4.40;;
70169;SDS011;57543;45.442;9.212;2023-04-15T16:47:58;10.35;;;4.18;;
70169;SDS011;57543;45.442;9.212;2023-04-15T16:51:02;9.63;;;4.07;;
70169;SDS011;57543;45.442;9.212;2023-04-15T16:54:06;7.30;;;4.20;;
70169;SDS011;57543;45.442;9.212;2023-04-15T16:57:10;8.90;;;3.95;;
70169;SDS011;57543;45.442;9.212;2023-04-15T17:00:14;6.97;;;3.97;;
70169;SDS011;57543;45.442;9.212;2023-04-15T17:03:17;7.97;;;3.92;;
70169;SDS011;57543;45.442;9.212;2023-04-15T17:06:21;8.45;;;3.80;;
70169;SDS011;57543;45.442;9.212;2023-04-15T17:09:25;8.68;;;3.90;;
70169;SDS011;57543;45.442;9.212;2023-04-15T17:12:29;9.00;;;3.95;;
70169;SDS011;57543;45.442;9.212;2023-04-15T17:15:33;12.47;;;4.20;;
70169;SDS011;57543;45.442;9.212;2023-04-15T17:18:56;11.38;;;4.45;;
70169;SDS011;57543;45.442;9.212;2023-04-15T17:22:04;8.77;;;4.25;;
70169;SDS011;57543;45.442;9.212;2023-04-15T17:25:09;9.40;;;4.35;;
70169;SDS011;57543;45.442;9.212;2023-04-15T17:28:18;11.82;;;6.38;;
70169;SDS011;57543;45.442;9.212;2023-04-15T17:31:23;8.50;;;5.10;;
70169;SDS011;57543;45.442;9.212;2023-04-15T17:34:47;9.07;;;6.03;;
70169;SDS011;57543;45.442;9.212;2023-04-15T17:38:12;13.73;;;7.75;;
70169;SDS011;57543;45.442;9.212;2023-04-15T17:41:35;13.93;;;9.00;;
70169;SDS011;57543;45.442;9.212;2023-04-15T17:44:59;14.65;;;9.18;;
70169;SDS011;57543;45.442;9.212;2023-04-15T17:48:26;13.37;;;9.47;;
70169;SDS011;57543;45.442;9.212;2023-04-15T17:51:50;14.00;;;8.20;;
70169;SDS011;57543;45.442;9.212;2023-04-15T17:55:17;12.23;;;8.23;;
70169;SDS011;57543;45.442;9.212;2023-04-15T17:58:41;10.82;;;6.15;;
70169;SDS011;57543;45.442;9.212;2023-04-15T18:02:05;11.52;;;5.35;;
70169;SDS011;57543;45.442;9.212;2023-04-15T18:05:29;8.20;;;4.30;;
70169;SDS011;57543;45.442;9.212;2023-04-15T18:08:52;8.20;;;4.75;;
70169;SDS011;57543;45.442;9.212;2023-04-15T18:12:16;8.70;;;4.03;;
70169;SDS011;57543;45.442;9.212;2023-04-15T18:15:39;8.80;;;4.28;;
70169;SDS011;57543;45.442;9.212;2023-04-15T18:19:03;7.80;;;3.92;;
70169;SDS011;57543;45.442;9.212;2023-04-15T18:22:07;8.70;;;3.87;;
70169;SDS011;57543;45.442;9.212;2023-04-15T18:25:11;8.13;;;3.47;;
70169;SDS011;57543;45.442;9.212;2023-04-15T18:28:14;7.60;;;3.55;;
70169;SDS011;57543;45.442;9.212;2023-04-15T18:31:18;7.85;;;3.83;;
70169;SDS011;57543;45.442;9.212;2023-04-15T18:34:22;6.57;;;3.38;;
70169;SDS011;57543;45.442;9.212;2023-04-15T18:37:25;6.67;;;3.27;;
70169;SDS011;57543;45.442;9.212;2023-04-15T18:40:31;6.85;;;3.25;;
70169;SDS011;57543;45.442;9.212;2023-04-15T18:43:35;7.63;;;3.50;;
70169;SDS011;57543;45.442;9.212;2023-04-15T18:46:39;7.78;;;3.83;;
70169;SDS011;57543;45.442;9.212;2023-04-15T18:49:43;7.00;;;3.85;;
70169;SDS011;57543;45.442;9.212;2023-04-15T18:52:47;6.40;;;3.57;;
70169;SDS011;57543;45.442;9.212;2023-04-15T18:55:51;7.40;;;3.42;;